KSNS/SNS METAR and TAF weather

Enter ICAO airport designator
Station Type Date Time Source
KSNS METAR 2022/06/26 07:53 UTC NOAA

KSNS 260753Z AUTO 28004KT 6SM BR OVC003 13/11 A2998 RMK AO2 SLP160 T01330111 402330122 TSNO


Station Type Date Time Source
KSNS Decoded METAR 2022/06/26 07:53 UTC NOAA

SALINAS MUNICIPAL AIRPORT, CA, United States (KSNS) 36-40N 121-36W 30M
Jun 26, 2022 - 03:53 AM EDT / 2022.06.26 0753 UTC
Wind: from the W (280 degrees) at 5 MPH (4 KT):0
Visibility: 6 mile(s):0
Sky conditions: overcast
Weather: mist
Temperature: 55.9 F (13.3 C)
Dew Point: 52.0 F (11.1 C)
Relative Humidity: 86%
Pressure (altimeter): 29.98 in. Hg (1015 hPa)
ob: KSNS 260753Z AUTO 28004KT 6SM BR OVC003 13/11 A2998 RMK AO2 SLP160 T01330111 402330122 TSNO
cycle: 8

Station Type Date Time Source
KSNS TAF 2022/06/26 06:33 UTC NOAA

TAF KSNS 260531Z 2606/2706 30008KT 4SM BR OVC004
FM260800 VRB03KT 2SM BR OVC002
FM261600 VRB04KT 6SM BR SCT003
FM261900 30012KT P6SM SKC
FM270400 30009KT P6SM OVC005

Example: see airport list